createdAt,value
2022-11-30T00:02:18.305Z,34.79
2022-11-30T00:04:48.003Z,34.55
2022-11-30T00:07:20.820Z,34.55
2022-11-30T00:09:52.581Z,34.50
2022-11-30T00:12:22.368Z,34.54
2022-11-30T00:14:52.663Z,34.57
2022-11-30T00:17:24.500Z,34.57
2022-11-30T00:20:08.209Z,34.58
2022-11-30T00:22:39.602Z,34.63
2022-11-30T00:25:10.199Z,34.56
2022-11-30T00:27:40.206Z,34.50
2022-11-30T00:30:11.920Z,34.39
2022-11-30T00:32:46.654Z,34.40
2022-11-30T00:35:20.369Z,34.56
2022-11-30T00:37:51.616Z,34.55
2022-11-30T00:40:20.248Z,34.66
2022-11-30T00:42:50.336Z,34.79
2022-11-30T00:45:20.656Z,34.69
2022-11-30T00:47:52.028Z,35.00
2022-11-30T00:50:23.421Z,34.87
2022-11-30T00:52:54.021Z,34.89
2022-11-30T00:55:23.956Z,34.85
2022-11-30T00:58:00.415Z,34.82
2022-11-30T01:00:32.053Z,34.96
2022-11-30T01:03:03.800Z,34.92
2022-11-30T01:05:38.127Z,35.05
2022-11-30T01:08:08.599Z,35.04
2022-11-30T01:10:40.520Z,35.05
2022-11-30T01:13:15.857Z,35.08
2022-11-30T01:15:45.549Z,35.12
2022-11-30T01:18:18.179Z,35.05
2022-11-30T01:20:47.877Z,35.43
2022-11-30T01:23:20.573Z,35.87
2022-11-30T01:26:00.106Z,35.99
2022-11-30T01:28:33.893Z,36.11
2022-11-30T01:31:22.616Z,36.07
2022-11-30T01:33:55.349Z,36.11
2022-11-30T01:36:34.222Z,36.15
2022-11-30T01:39:03.574Z,36.18
2022-11-30T01:41:34.307Z,36.13
2022-11-30T01:44:09.923Z,36.17
2022-11-30T01:46:46.718Z,35.81
2022-11-30T01:49:23.497Z,35.39
2022-11-30T01:52:11.350Z,36.38
2022-11-30T01:55:03.483Z,36.63
2022-11-30T01:57:55.460Z,36.58
2022-11-30T02:00:32.967Z,36.54
2022-11-30T02:03:07.879Z,36.49
2022-11-30T02:05:49.702Z,36.68
2022-11-30T02:08:22.822Z,35.79
2022-11-30T02:11:03.359Z,35.41
2022-11-30T02:13:38.047Z,35.31
2022-11-30T02:16:42.835Z,35.27
2022-11-30T02:20:16.398Z,35.60
2022-11-30T02:23:10.775Z,35.41
2022-11-30T02:26:08.142Z,35.44
2022-11-30T02:29:03.094Z,35.46
2022-11-30T02:31:51.711Z,35.44
2022-11-30T02:34:38.913Z,35.48
2022-11-30T02:37:16.936Z,36.18
2022-11-30T02:39:51.427Z,35.46
2022-11-30T02:42:22.165Z,35.31
2022-11-30T02:44:54.549Z,35.25
2022-11-30T02:47:46.228Z,35.37
2022-11-30T02:51:01.069Z,35.55
2022-11-30T02:53:34.926Z,35.52
2022-11-30T02:56:08.096Z,35.34
2022-11-30T02:58:39.871Z,35.31
2022-11-30T03:01:13.658Z,35.25
2022-11-30T03:03:46.323Z,35.15
2022-11-30T03:06:19.323Z,35.15
2022-11-30T03:08:52.486Z,35.10
2022-11-30T03:11:46.066Z,35.22
2022-11-30T03:14:16.497Z,35.11
2022-11-30T03:16:52.517Z,35.09
2022-11-30T03:19:24.060Z,35.09
2022-11-30T03:22:01.917Z,35.12
2022-11-30T03:24:35.130Z,35.14
2022-11-30T03:27:12.441Z,35.17
2022-11-30T03:29:46.801Z,35.18
2022-11-30T03:32:16.233Z,35.20
2022-11-30T03:34:51.169Z,35.22
2022-11-30T03:37:21.056Z,35.31
2022-11-30T03:39:57.786Z,35.24
2022-11-30T03:42:36.044Z,35.34
2022-11-30T03:45:10.220Z,35.38
2022-11-30T03:47:40.460Z,35.37
2022-11-30T03:50:10.753Z,35.33
2022-11-30T03:52:40.511Z,35.27
2022-11-30T03:55:10.496Z,35.53
2022-11-30T03:57:41.007Z,36.39
2022-11-30T04:00:11.769Z,36.05
2022-11-30T04:02:45.792Z,36.82
2022-11-30T04:05:15.317Z,36.10
2022-11-30T04:07:44.582Z,36.07
2022-11-30T04:10:16.476Z,36.05
2022-11-30T04:12:48.985Z,36.15
2022-11-30T04:15:21.042Z,36.23
2022-11-30T04:18:02.105Z,36.13
2022-11-30T04:20:42.384Z,36.21
2022-11-30T04:23:18.819Z,36.20
2022-11-30T04:25:50.684Z,36.21
2022-11-30T04:28:22.327Z,36.34
2022-11-30T04:31:00.024Z,37.06
2022-11-30T04:33:32.283Z,36.31
2022-11-30T04:36:07.709Z,36.12
2022-11-30T04:38:38.737Z,36.07
2022-11-30T04:41:10.745Z,36.00
2022-11-30T04:43:42.161Z,36.00
2022-11-30T04:46:14.380Z,35.98
2022-11-30T04:48:45.067Z,35.89
2022-11-30T04:51:16.576Z,35.92
2022-11-30T04:53:49.973Z,36.39
2022-11-30T04:56:19.987Z,36.43
2022-11-30T04:58:52.242Z,36.26
2022-11-30T05:01:23.283Z,36.49
2022-11-30T05:03:52.194Z,36.88
2022-11-30T05:06:24.116Z,36.15
2022-11-30T05:09:04.344Z,36.02
2022-11-30T05:11:35.731Z,35.94
2022-11-30T05:14:07.396Z,35.90
2022-11-30T05:16:36.776Z,35.99
2022-11-30T05:19:16.696Z,36.00
2022-11-30T05:21:48.241Z,35.99
2022-11-30T05:24:19.017Z,35.94
2022-11-30T05:26:48.964Z,35.95
2022-11-30T05:29:58.047Z,36.40
2022-11-30T05:32:35.532Z,37.58
2022-11-30T05:35:06.694Z,36.71
2022-11-30T05:37:36.697Z,36.34
2022-11-30T05:40:14.712Z,36.19
2022-11-30T05:42:44.457Z,37.44
2022-11-30T05:45:15.992Z,36.67
2022-11-30T05:47:48.360Z,36.38
2022-11-30T05:50:22.285Z,36.17
2022-11-30T05:53:04.126Z,36.26
2022-11-30T05:55:40.150Z,36.15
2022-11-30T05:58:10.939Z,36.06
2022-11-30T06:00:46.582Z,36.85
2022-11-30T06:03:16.748Z,37.14
2022-11-30T06:05:55.048Z,37.12
2022-11-30T06:08:36.440Z,37.16
2022-11-30T06:11:12.038Z,37.21
2022-11-30T06:13:44.467Z,38.47
2022-11-30T06:16:19.647Z,37.83
2022-11-30T06:18:50.543Z,37.61
2022-11-30T06:21:24.466Z,37.43
2022-11-30T06:24:08.068Z,37.44
2022-11-30T06:26:42.465Z,37.44
2022-11-30T06:29:16.474Z,37.42
2022-11-30T06:31:57.865Z,37.38
2022-11-30T06:34:49.290Z,37.43
2022-11-30T06:37:43.338Z,37.52
2022-11-30T06:40:19.443Z,37.43
2022-11-30T06:43:08.576Z,37.49
2022-11-30T06:46:15.089Z,37.76
2022-11-30T06:48:58.622Z,37.62
2022-11-30T06:51:41.073Z,37.56
2022-11-30T06:54:12.451Z,37.61
2022-11-30T06:56:44.099Z,37.54
2022-11-30T06:59:20.292Z,37.28
2022-11-30T07:02:10.742Z,36.18
2022-11-30T07:04:43.935Z,36.54
2022-11-30T07:07:15.193Z,36.67
2022-11-30T07:09:44.751Z,36.82
2022-11-30T07:12:16.749Z,36.85
2022-11-30T07:15:03.495Z,36.35
2022-11-30T07:17:44.381Z,36.80
2022-11-30T07:20:24.699Z,37.10
2022-11-30T07:23:44.361Z,37.16
2022-11-30T07:26:19.855Z,36.34
2022-11-30T07:29:03.855Z,36.21
2022-11-30T07:31:44.460Z,36.08
2022-11-30T09:34:42.144Z,37.61
2022-11-30T09:37:11.696Z,37.28
2022-11-30T09:39:39.942Z,37.14
2022-11-30T09:42:19.658Z,37.20
2022-11-30T09:45:03.862Z,37.25
2022-11-30T09:47:41.225Z,37.33
2022-11-30T09:50:16.148Z,37.27
2022-11-30T09:53:06.985Z,38.58
2022-11-30T09:55:43.538Z,37.91
2022-11-30T09:58:35.042Z,37.39
2022-11-30T10:01:07.385Z,37.23
2022-11-30T10:03:36.313Z,36.82
2022-11-30T10:06:27.874Z,36.94
2022-11-30T10:09:22.171Z,36.86
2022-11-30T10:12:12.000Z,37.14
2022-11-30T10:14:47.678Z,37.03
2022-11-30T10:17:51.625Z,37.28
2022-11-30T10:20:39.970Z,37.51
2022-11-30T10:23:46.351Z,37.85
2022-11-30T10:26:39.810Z,37.18
2022-11-30T10:29:23.426Z,37.06
2022-11-30T10:31:59.860Z,37.42
2022-11-30T10:34:37.135Z,37.63
2022-11-30T10:37:18.019Z,37.49
2022-11-30T10:39:59.873Z,37.28
2022-11-30T10:42:42.341Z,37.31
2022-11-30T10:45:18.189Z,37.33
2022-11-30T10:48:08.696Z,37.38
2022-11-30T10:50:38.758Z,37.38
2022-11-30T10:53:08.140Z,37.38
2022-11-30T10:56:04.026Z,37.40
2022-11-30T10:58:40.478Z,37.70
2022-11-30T11:01:30.642Z,37.84
2022-11-30T11:04:21.162Z,39.19
2022-11-30T11:07:09.362Z,39.24
2022-11-30T11:09:59.753Z,39.37
2022-11-30T11:12:31.777Z,39.37
2022-11-30T11:15:26.084Z,39.55
2022-11-30T11:18:28.920Z,39.75
2022-11-30T11:21:32.714Z,38.88
2022-11-30T11:24:11.374Z,38.50
2022-11-30T11:26:51.811Z,38.49
2022-11-30T11:29:32.561Z,38.64
2022-11-30T11:32:20.446Z,38.73
2022-11-30T11:34:52.007Z,38.62
2022-11-30T11:37:39.180Z,39.12
2022-11-30T11:40:17.355Z,37.98
2022-11-30T11:59:16.342Z,38.89
2022-11-30T12:03:32.885Z,38.69
2022-11-30T12:07:05.361Z,39.42
2022-11-30T12:10:43.483Z,39.41
2022-11-30T12:13:46.827Z,39.82
2022-11-30T12:17:16.910Z,39.51
2022-11-30T12:31:15.635Z,39.87
2022-11-30T12:53:35.640Z,39.60
2022-11-30T12:56:24.959Z,39.16
2022-11-30T12:59:20.207Z,38.90
2022-11-30T13:03:03.884Z,39.21
2022-11-30T13:11:50.395Z,39.60
2022-11-30T13:35:05.403Z,39.97
2022-11-30T13:38:02.707Z,39.72
2022-11-30T13:41:11.708Z,39.69
2022-11-30T14:05:37.209Z,40.27
2022-11-30T14:09:17.778Z,40.32
2022-11-30T14:15:49.174Z,40.32
2022-11-30T14:18:43.141Z,40.04
2022-11-30T14:21:19.355Z,39.79
2022-11-30T14:24:25.111Z,40.25
2022-11-30T14:27:25.331Z,40.19
2022-11-30T14:30:23.404Z,40.33
2022-11-30T14:33:03.625Z,40.45
2022-11-30T14:35:48.856Z,40.47
2022-11-30T14:38:48.020Z,40.55
2022-11-30T14:41:36.651Z,40.67
2022-11-30T14:44:16.509Z,40.56
2022-11-30T14:46:55.293Z,40.45
2022-11-30T14:49:35.293Z,40.47
2022-11-30T14:52:08.842Z,40.35
2022-11-30T14:55:14.909Z,40.53
2022-11-30T14:58:49.143Z,40.95
2022-11-30T15:06:18.060Z,41.01
2022-11-30T15:09:48.540Z,41.04
2022-11-30T15:13:00.540Z,40.70
2022-11-30T15:16:25.029Z,40.92
2022-11-30T15:19:48.867Z,40.97
2022-11-30T15:22:52.743Z,41.03
2022-11-30T15:26:23.480Z,40.97
2022-11-30T15:29:13.430Z,41.10
2022-11-30T15:31:52.683Z,40.59
2022-11-30T15:34:45.557Z,40.82
2022-11-30T15:37:23.111Z,40.77
2022-11-30T15:40:19.763Z,40.73
2022-11-30T15:42:52.659Z,40.43
2022-11-30T15:45:41.377Z,40.54
2022-11-30T15:48:36.129Z,40.66
2022-11-30T15:51:11.811Z,40.39
2022-11-30T15:54:02.696Z,40.45
2022-11-30T15:56:35.909Z,40.45
2022-11-30T15:59:16.723Z,40.47
2022-11-30T16:02:09.169Z,40.98
2022-11-30T16:05:00.996Z,40.88
2022-11-30T16:07:36.357Z,40.66
2022-11-30T16:10:13.430Z,40.73
2022-11-30T16:12:49.140Z,40.74
2022-11-30T16:15:24.873Z,40.87
2022-11-30T16:18:25.043Z,41.15
2022-11-30T16:21:16.572Z,41.32
2022-11-30T16:23:52.338Z,41.38
2022-11-30T16:26:43.518Z,41.27
2022-11-30T16:29:14.886Z,41.24
2022-11-30T16:31:46.325Z,41.12
2022-11-30T16:34:18.869Z,41.46
2022-11-30T16:36:53.334Z,41.23
2022-11-30T16:39:39.883Z,41.20
2022-11-30T16:42:16.127Z,41.15
2022-11-30T16:44:49.163Z,41.26
2022-11-30T16:48:40.822Z,41.42
2022-11-30T16:51:59.590Z,41.96
2022-11-30T16:54:39.158Z,41.57
2022-11-30T16:57:28.921Z,41.32
2022-11-30T17:00:27.426Z,41.65
2022-11-30T17:04:07.189Z,41.85
2022-11-30T17:07:21.892Z,41.77
2022-11-30T17:33:52.229Z,42.85
2022-11-30T17:46:03.674Z,42.51
2022-11-30T17:48:36.873Z,42.12
2022-11-30T17:51:12.684Z,41.93
2022-11-30T17:53:49.101Z,41.74
2022-11-30T17:56:24.815Z,41.71
2022-11-30T17:59:32.459Z,41.86
2022-11-30T18:02:20.761Z,42.15
2022-11-30T18:04:59.602Z,42.08
2022-11-30T18:07:37.186Z,42.14
2022-11-30T18:10:32.006Z,42.46
2022-11-30T18:13:17.933Z,42.79
2022-11-30T18:15:53.098Z,42.54
2022-11-30T18:18:42.954Z,44.02
2022-11-30T18:25:00.165Z,42.85
2022-11-30T18:27:47.882Z,42.72
2022-11-30T18:30:43.782Z,42.58
2022-11-30T18:33:33.678Z,42.69
2022-11-30T18:36:12.128Z,42.51
2022-11-30T18:38:55.129Z,42.48
2022-11-30T18:41:56.871Z,42.84
2022-11-30T18:45:17.599Z,43.11
2022-11-30T18:48:13.320Z,42.86
2022-11-30T18:50:50.929Z,42.75
2022-11-30T18:53:37.761Z,42.72
2022-11-30T18:56:25.238Z,42.93
2022-11-30T18:59:36.730Z,43.11
2022-11-30T19:02:43.548Z,43.28
2022-11-30T19:06:13.150Z,43.53
2022-11-30T19:08:52.758Z,43.10
2022-11-30T19:11:45.552Z,42.97
2022-11-30T19:14:23.979Z,43.04
2022-11-30T19:17:00.990Z,43.02
2022-11-30T19:19:49.091Z,43.19
2022-11-30T19:22:35.375Z,43.44
2022-11-30T19:25:19.980Z,43.52
2022-11-30T19:27:52.611Z,43.53
2022-11-30T19:30:41.260Z,43.73
2022-11-30T19:33:26.985Z,43.46
2022-11-30T19:36:23.211Z,43.43
2022-11-30T19:39:36.654Z,43.81
2022-11-30T19:42:21.771Z,43.51
2022-11-30T19:45:13.483Z,43.47
2022-11-30T19:51:18.290Z,43.62
2022-11-30T19:54:11.652Z,43.51
2022-11-30T19:56:49.528Z,43.29
2022-11-30T19:59:35.868Z,43.03
2022-11-30T20:02:11.136Z,42.71
2022-11-30T20:04:44.317Z,42.53
2022-11-30T20:07:16.496Z,42.54
2022-11-30T20:09:49.390Z,42.40
2022-11-30T20:12:47.593Z,42.47
2022-11-30T20:15:24.071Z,42.28
2022-11-30T20:17:59.897Z,42.15
2022-11-30T20:20:34.563Z,42.08
2022-11-30T20:23:08.210Z,42.96
2022-11-30T20:25:39.050Z,42.93
2022-11-30T20:34:00.538Z,41.68
2022-11-30T20:36:49.154Z,41.17
2022-11-30T20:50:40.381Z,41.39
2022-11-30T20:53:44.236Z,41.97
2022-11-30T20:57:00.341Z,41.62
2022-11-30T21:00:13.287Z,42.31
2022-11-30T21:02:52.542Z,40.92
2022-11-30T21:05:43.589Z,40.61
2022-11-30T21:08:15.781Z,40.29
2022-11-30T21:10:45.258Z,40.00
2022-11-30T21:13:16.865Z,39.95
2022-11-30T21:15:51.896Z,39.84
2022-11-30T21:18:24.711Z,39.73
2022-11-30T21:21:19.418Z,39.94
2022-11-30T21:23:50.477Z,39.61
2022-11-30T21:26:33.446Z,39.48
2022-11-30T21:29:13.543Z,39.55
2022-11-30T21:31:47.839Z,39.32
2022-11-30T21:34:21.564Z,39.93
2022-11-30T21:37:00.904Z,40.19
2022-11-30T21:40:12.818Z,40.63
2022-11-30T21:42:47.737Z,40.33
2022-11-30T21:45:19.975Z,40.08
2022-11-30T21:47:51.461Z,39.92
2022-11-30T21:50:26.911Z,40.34
2022-11-30T21:53:03.888Z,40.33
2022-11-30T21:55:36.380Z,40.34
2022-11-30T21:58:09.942Z,39.24
2022-11-30T22:00:43.116Z,38.68
2022-11-30T22:03:21.551Z,38.52
2022-11-30T22:06:05.671Z,38.71
2022-11-30T22:08:41.346Z,38.53
2022-11-30T22:11:21.637Z,38.56
2022-11-30T22:14:08.088Z,38.07
2022-11-30T22:16:40.451Z,37.95
2022-11-30T22:19:13.111Z,38.46
2022-11-30T22:21:50.245Z,38.93
2022-11-30T22:24:23.980Z,39.05
2022-11-30T22:27:01.378Z,39.05
2022-11-30T22:29:39.892Z,38.59
2022-11-30T22:32:09.425Z,38.68
2022-11-30T22:34:43.293Z,37.82
2022-11-30T22:37:14.582Z,37.47
2022-11-30T22:39:47.758Z,37.25
2022-11-30T22:42:19.548Z,37.06
2022-11-30T22:44:52.962Z,36.99
2022-11-30T22:47:31.755Z,36.88
2022-11-30T22:50:03.914Z,36.68
2022-11-30T22:53:01.476Z,36.48
2022-11-30T22:55:33.984Z,37.72
2022-11-30T22:58:05.398Z,36.82
2022-11-30T23:00:41.394Z,36.50
2022-11-30T23:03:17.383Z,36.28
2022-11-30T23:05:49.337Z,36.12
2022-11-30T23:08:21.257Z,36.01
2022-11-30T23:11:05.184Z,36.27
2022-11-30T23:13:44.525Z,36.26
2022-11-30T23:16:16.888Z,36.09
2022-11-30T23:18:58.529Z,36.04
2022-11-30T23:21:42.069Z,36.06
2022-11-30T23:24:21.592Z,36.05
2022-11-30T23:26:55.589Z,35.92
2022-11-30T23:29:41.529Z,35.85
2022-11-30T23:32:12.747Z,35.98
2022-11-30T23:34:50.781Z,36.45
2022-11-30T23:37:21.786Z,36.03
2022-11-30T23:39:53.645Z,35.75
2022-11-30T23:42:32.872Z,35.70
2022-11-30T23:45:06.627Z,35.56
2022-11-30T23:47:36.916Z,35.43
2022-11-30T23:50:09.394Z,35.40
2022-11-30T23:52:41.695Z,36.34
2022-11-30T23:55:19.440Z,36.70
2022-11-30T23:57:51.610Z,35.94
